Time;durP1;ratioP1;P1;durP2;ratioP2;P2;SDS_P1;SDS_P2;PMS_P1;PMS_P2;Temp;Humidity;BMP_temperature;BMP_pressure;BME280_temperature;BME280_humidity;BME280_pressure;Samples;Min_cycle;Max_cycle;Signal;HPM_P1;HPM_P2
2020/12/03 00:01:33;;;;;;;18.70;9.77;;;7.70;99.90;;;;;;5016776;28;20284;-94
2020/12/03 00:04:04;;;;;;;17.30;9.07;;;7.70;99.90;;;;;;5016951;28;20319;-91
2020/12/03 00:06:34;;;;;;;18.37;9.43;;;7.80;99.90;;;;;;5017957;28;20211;-93
2020/12/03 00:09:04;;;;;;;17.90;8.93;;;7.60;99.90;;;;;;5017392;28;20240;-92
2020/12/03 00:11:33;;;;;;;20.30;8.53;;;7.60;99.90;;;;;;5017283;28;20267;-91
2020/12/03 00:14:00;;;;;;;18.67;8.80;;;7.60;99.90;;;;;;5017868;28;20283;-92
2020/12/03 00:16:29;;;;;;;22.77;9.07;;;7.50;99.90;;;;;;5017569;28;20268;-92
2020/12/03 00:18:56;;;;;;;14.87;7.87;;;7.60;99.90;;;;;;5017178;28;20234;-91
2020/12/03 00:21:32;;;;;;;13.30;8.50;;;7.60;99.90;;;;;;5023699;28;20255;-91
2020/12/03 00:23:58;;;;;;;22.47;8.50;;;7.50;99.90;;;;;;5023253;28;20592;-93
2020/12/03 00:26:27;;;;;;;20.97;9.03;;;7.60;99.90;;;;;;5018900;28;20214;-94
2020/12/03 00:28:53;;;;;;;21.80;9.10;;;7.70;99.90;;;;;;5017385;28;20576;-91
2020/12/03 00:31:20;;;;;;;19.80;9.27;;;7.70;99.90;;;;;;5018057;28;20574;-93
2020/12/03 00:33:46;;;;;;;21.63;9.20;;;7.70;99.90;;;;;;5018065;28;20224;-91
2020/12/03 00:36:13;;;;;;;21.50;9.93;;;7.80;99.90;;;;;;5018406;28;20235;-90
2020/12/03 00:38:40;;;;;;;21.40;10.20;;;7.80;99.90;;;;;;5017352;28;20707;-91
2020/12/03 00:41:07;;;;;;;22.63;9.70;;;7.80;99.90;;;;;;5017559;28;20196;-91
2020/12/03 00:43:34;;;;;;;28.83;10.23;;;7.60;99.90;;;;;;5017001;28;20228;-94
2020/12/03 00:46:00;;;;;;;27.53;10.10;;;7.50;99.90;;;;;;5016490;28;20204;-89
2020/12/03 00:48:27;;;;;;;22.80;10.23;;;7.40;99.90;;;;;;5016406;28;20277;-93
2020/12/03 00:50:53;;;;;;;22.37;10.47;;;7.40;99.90;;;;;;5017063;28;20735;-91
2020/12/03 00:53:20;;;;;;;23.53;10.40;;;7.40;99.90;;;;;;5016515;28;20246;-91
2020/12/03 00:55:48;;;;;;;24.00;10.63;;;7.60;99.90;;;;;;5016851;28;20235;-91
2020/12/03 00:58:16;;;;;;;20.77;11.17;;;7.50;99.90;;;;;;5016442;28;20263;-92
2020/12/03 01:00:43;;;;;;;20.80;10.13;;;7.50;99.90;;;;;;5017057;28;20207;-91
2020/12/03 01:03:10;;;;;;;21.03;10.67;;;7.40;99.90;;;;;;5018563;28;20219;-93
2020/12/03 01:05:37;;;;;;;28.03;11.67;;;7.50;99.90;;;;;;5022269;28;20231;-91
2020/12/03 01:08:04;;;;;;;23.67;12.20;;;7.70;99.90;;;;;;5022870;28;20741;-94
2020/12/03 01:10:33;;;;;;;19.97;11.20;;;7.70;99.90;;;;;;5024209;28;20219;-92
2020/12/03 01:13:01;;;;;;;18.73;10.93;;;7.70;99.90;;;;;;5023550;28;20192;-92
2020/12/03 01:15:28;;;;;;;23.07;12.33;;;7.50;99.90;;;;;;5023421;28;20226;-91
2020/12/03 01:17:55;;;;;;;18.93;11.63;;;7.60;99.90;;;;;;5023692;28;20291;-93
2020/12/03 01:20:24;;;;;;;21.10;11.33;;;7.60;99.90;;;;;;5018836;28;20196;-92
2020/12/03 01:22:50;;;;;;;20.20;11.57;;;7.70;99.90;;;;;;5018288;28;20200;-93
2020/12/03 01:25:18;;;;;;;21.93;11.13;;;7.70;99.90;;;;;;5018907;28;20198;-93
2020/12/03 01:27:44;;;;;;;25.23;11.17;;;7.60;99.90;;;;;;5018200;28;20231;-92
2020/12/03 01:30:12;;;;;;;25.37;10.70;;;7.60;99.90;;;;;;5017229;28;20231;-92
2020/12/03 01:32:39;;;;;;;21.63;10.40;;;7.60;99.90;;;;;;5017057;28;20192;-92
2020/12/03 01:35:08;;;;;;;17.70;11.17;;;7.70;99.90;;;;;;5017125;28;20196;-92
2020/12/03 01:37:34;;;;;;;18.70;10.87;;;7.60;99.90;;;;;;5017375;28;20251;-92
2020/12/03 01:40:00;;;;;;;19.03;10.80;;;7.60;99.90;;;;;;5018754;28;20223;-92
2020/12/03 01:42:27;;;;;;;22.93;10.33;;;7.50;99.90;;;;;;5018587;28;20246;-93
2020/12/03 01:44:55;;;;;;;16.53;10.93;;;7.50;99.90;;;;;;5018401;28;20227;-93
2020/12/03 01:47:27;;;;;;;17.50;10.67;;;7.50;99.90;;;;;;5017623;28;20234;-93
2020/12/03 01:49:53;;;;;;;23.63;11.10;;;7.50;99.90;;;;;;5017022;28;20223;-92
2020/12/03 01:52:20;;;;;;;17.03;10.47;;;7.50;99.90;;;;;;5017518;28;20620;-93
2020/12/03 01:54:46;;;;;;;21.23;10.30;;;7.60;99.90;;;;;;5017305;28;20286;-92
2020/12/03 01:57:44;;;;;;;15.07;10.27;;;7.60;99.90;;;;;;5022446;28;20222;-93
2020/12/03 02:00:14;;;;;;;17.13;10.67;;;7.50;99.90;;;;;;5016555;28;20263;-95
2020/12/03 02:02:43;;;;;;;14.13;9.70;;;7.60;99.90;;;;;;5017161;28;20219;-92
2020/12/03 02:05:13;;;;;;;16.10;10.07;;;7.50;99.90;;;;;;5016517;28;20188;-92
2020/12/03 02:07:39;;;;;;;14.07;9.67;;;7.40;99.90;;;;;;5018708;28;20254;-93
2020/12/03 02:10:07;;;;;;;15.07;9.03;;;7.30;99.90;;;;;;5016918;28;20277;-91
2020/12/03 02:12:34;;;;;;;18.93;10.27;;;7.20;99.90;;;;;;5019207;28;20231;-93
2020/12/03 02:15:01;;;;;;;14.27;10.10;;;7.30;99.90;;;;;;5019548;28;20230;-92
2020/12/03 02:17:27;;;;;;;19.37;9.97;;;7.20;99.90;;;;;;5021915;28;20248;-92
2020/12/03 02:19:57;;;;;;;17.03;10.17;;;7.20;99.90;;;;;;5020678;28;20367;-92
2020/12/03 02:22:27;;;;;;;14.07;10.47;;;7.20;99.90;;;;;;5018702;28;20286;-92
2020/12/03 02:24:54;;;;;;;15.40;9.77;;;7.20;99.90;;;;;;5021428;28;20235;-93
2020/12/03 02:27:24;;;;;;;18.40;10.20;;;7.20;99.90;;;;;;5024068;28;20274;-93
2020/12/03 02:29:51;;;;;;;18.13;9.97;;;7.20;99.90;;;;;;5024591;28;20443;-94
2020/12/03 02:32:17;;;;;;;15.17;10.13;;;7.20;99.90;;;;;;5024776;28;20218;-93
2020/12/03 02:34:45;;;;;;;13.73;9.33;;;7.10;99.90;;;;;;5029134;28;20215;-91
2020/12/03 02:37:13;;;;;;;11.83;9.50;;;7.30;99.90;;;;;;5028058;28;20650;-91
2020/12/03 02:39:40;;;;;;;14.50;9.40;;;7.20;99.90;;;;;;5020996;28;20232;-93
2020/12/03 02:42:09;;;;;;;18.00;9.53;;;7.20;99.90;;;;;;5021127;28;20204;-95
2020/12/03 02:44:36;;;;;;;16.10;10.17;;;7.20;99.90;;;;;;5019454;28;20548;-92
2020/12/03 02:47:02;;;;;;;13.40;9.80;;;7.20;99.90;;;;;;5020281;28;20267;-94
2020/12/03 02:49:29;;;;;;;19.43;10.93;;;7.30;99.90;;;;;;5019361;28;20330;-91
2020/12/03 02:51:56;;;;;;;14.90;10.33;;;7.40;99.90;;;;;;5019164;28;20283;-92
2020/12/03 02:54:23;;;;;;;15.97;11.17;;;7.30;99.90;;;;;;5017766;28;20208;-93
2020/12/03 02:56:50;;;;;;;13.47;10.13;;;7.20;99.90;;;;;;5019421;28;20192;-93
2020/12/03 02:59:16;;;;;;;13.37;10.07;;;7.10;99.90;;;;;;5019314;28;20343;-92
2020/12/03 03:01:43;;;;;;;14.20;10.40;;;7.20;99.90;;;;;;5019934;28;20626;-92
2020/12/03 03:04:09;;;;;;;15.10;10.03;;;7.30;99.90;;;;;;5019526;28;20208;-92
2020/12/03 03:06:36;;;;;;;17.23;10.87;;;7.30;99.90;;;;;;5019563;28;20260;-93
2020/12/03 03:09:04;;;;;;;11.87;9.60;;;7.30;99.90;;;;;;5019837;28;20324;-93
2020/12/03 03:11:32;;;;;;;13.40;9.63;;;7.30;99.90;;;;;;5019934;28;20196;-93
2020/12/03 03:14:01;;;;;;;15.80;9.77;;;7.30;99.90;;;;;;5018981;28;20196;-91
2020/12/03 03:16:27;;;;;;;11.37;8.67;;;7.40;99.90;;;;;;5020238;28;20208;-92
2020/12/03 03:18:54;;;;;;;11.70;8.97;;;7.40;99.90;;;;;;5021317;28;20714;-92
2020/12/03 03:21:20;;;;;;;12.83;9.13;;;7.40;99.90;;;;;;5022628;28;20235;-93
2020/12/03 03:23:47;;;;;;;12.53;8.23;;;7.30;99.90;;;;;;5020659;28;20291;-93
2020/12/03 03:26:14;;;;;;;14.30;8.37;;;7.20;99.90;;;;;;5018528;28;20719;-93
2020/12/03 03:28:41;;;;;;;11.97;8.67;;;7.20;99.90;;;;;;5018451;28;20256;-94
2020/12/03 03:31:08;;;;;;;14.23;9.23;;;7.30;99.90;;;;;;5018596;28;20215;-91
2020/12/03 03:33:34;;;;;;;10.07;8.10;;;7.30;99.90;;;;;;5019552;28;20204;-95
2020/12/03 03:36:01;;;;;;;11.57;9.25;;;7.30;99.90;;;;;;5018471;28;20464;-93
2020/12/03 03:38:27;;;;;;;12.23;8.63;;;7.30;99.90;;;;;;5019285;28;20270;-93
2020/12/03 03:40:54;;;;;;;10.80;8.07;;;7.30;99.90;;;;;;5019383;28;20253;-92
2020/12/03 03:43:20;;;;;;;9.37;8.43;;;7.40;99.90;;;;;;5021096;28;20231;-92
2020/12/03 03:45:49;;;;;;;9.83;8.63;;;7.60;99.90;;;;;;5024184;28;20196;-93
2020/12/03 03:48:23;;;;;;;12.27;8.13;;;7.40;99.90;;;;;;5025553;28;20324;-93
2020/12/03 03:50:52;;;;;;;10.80;9.43;;;7.50;99.90;;;;;;5025292;28;20210;-92
2020/12/03 03:53:27;;;;;;;13.63;8.60;;;7.40;99.90;;;;;;5025993;28;20262;-94
2020/12/03 04:02:26;;;;;;;10.30;9.17;;;7.10;99.90;;;;;;5032881;28;20210;-93
2020/12/03 04:04:54;;;;;;;17.37;10.13;;;7.10;99.90;;;;;;5029542;28;20200;-93
2020/12/03 04:07:22;;;;;;;12.87;10.10;;;7.10;99.90;;;;;;5037735;28;20196;-90
2020/12/03 04:09:50;;;;;;;16.58;14.88;;;7.10;99.90;;;;;;5039411;28;20455;-89
2020/12/03 04:15:49;;;;;;;14.60;11.43;;;7.20;99.90;;;;;;5017845;28;20212;-93
2020/12/03 04:18:38;;;;;;;14.37;10.83;;;7.20;99.90;;;;;;5027288;28;20247;-93
2020/12/03 04:21:07;;;;;;;13.37;11.43;;;7.10;99.90;;;;;;5021162;28;20192;-91
2020/12/03 04:26:47;;;;;;;20.93;11.53;;;7.10;99.90;;;;;;5025476;28;20211;-93
2020/12/03 04:33:22;;;;;;;18.60;12.77;;;7.10;99.90;;;;;;5026412;28;20208;-93
2020/12/03 04:36:07;;;;;;;18.37;11.80;;;7.10;99.90;;;;;;5022935;28;20235;-94
2020/12/03 04:46:03;;;;;;;21.30;12.60;;;7.10;99.90;;;;;;5023127;28;20212;-92
2020/12/03 04:53:07;;;;;;;14.13;11.70;;;7.00;99.90;;;;;;4945656;29;20242;-94
2020/12/03 04:55:54;;;;;;;15.27;12.00;;;7.00;99.90;;;;;;4949401;28;20244;-90
2020/12/03 04:58:35;;;;;;;22.10;13.10;;;6.90;99.90;;;;;;4978295;28;20228;-91
2020/12/03 05:04:09;;;;;;;21.50;12.50;;;6.90;99.90;;;;;;5021582;28;20207;-92
2020/12/03 05:07:00;;;;;;;18.37;11.67;;;6.90;99.90;;;;;;5022356;28;20208;-93
2020/12/03 05:09:36;;;;;;;17.17;12.33;;;6.80;99.90;;;;;;5021692;28;20262;-93
2020/12/03 05:12:15;;;;;;;15.63;11.70;;;6.90;99.90;;;;;;5019854;28;20207;-90
2020/12/03 05:18:16;;;;;;;16.17;10.57;;;6.90;99.90;;;;;;5020421;28;20251;-91
2020/12/03 05:39:43;;;;;;;17.10;11.87;;;6.80;99.90;;;;;;5100518;22;20248;-94
2020/12/03 05:42:12;;;;;;;13.07;10.50;;;6.80;99.90;;;;;;5075527;28;20233;-92
2020/12/03 05:44:46;;;;;;;15.27;10.20;;;6.70;99.90;;;;;;5079685;28;20202;-92
2020/12/03 05:47:23;;;;;;;16.47;10.07;;;6.70;99.90;;;;;;5083138;28;20273;-92
2020/12/03 05:49:54;;;;;;;13.77;10.70;;;6.70;99.90;;;;;;5100182;28;20231;-91
2020/12/03 05:52:24;;;;;;;13.67;10.20;;;6.90;99.90;;;;;;5099086;28;20255;-90
2020/12/03 05:55:00;;;;;;;15.50;9.93;;;6.80;99.90;;;;;;5099311;28;20213;-92
2020/12/03 05:57:30;;;;;;;14.57;9.83;;;6.80;99.90;;;;;;5097842;28;20308;-92
2020/12/03 06:00:16;;;;;;;15.03;10.90;;;6.80;99.90;;;;;;5097156;28;20220;-91
2020/12/03 06:02:52;;;;;;;16.63;10.80;;;6.80;99.90;;;;;;5095953;28;20212;-87
2020/12/03 06:05:25;;;;;;;14.77;10.97;;;6.80;99.90;;;;;;5096051;28;20223;-91
2020/12/03 06:08:10;;;;;;;12.87;10.27;;;6.80;99.90;;;;;;5095380;28;20249;-93
2020/12/03 06:10:53;;;;;;;12.83;10.07;;;6.90;99.90;;;;;;5094342;28;20316;-91
2020/12/03 06:13:52;;;;;;;18.00;10.27;;;7.00;99.90;;;;;;5095803;28;20665;-92
2020/12/03 06:16:32;;;;;;;14.43;10.63;;;7.00;99.90;;;;;;5082120;28;20614;-90
2020/12/03 06:19:16;;;;;;;14.57;10.67;;;6.80;99.90;;;;;;5098267;28;20235;-89
2020/12/03 06:21:59;;;;;;;16.17;11.40;;;6.90;99.90;;;;;;5092975;28;20284;-94
2020/12/03 06:25:07;;;;;;;24.23;13.27;;;6.80;99.90;;;;;;5094960;28;20224;-92
2020/12/03 06:28:33;;;;;;;21.87;12.53;;;7.00;99.90;;;;;;5084214;28;20595;-90
2020/12/03 06:31:09;;;;;;;19.33;13.53;;;6.90;99.90;;;;;;5013471;28;20214;-90
2020/12/03 06:33:40;;;;;;;16.00;12.20;;;7.00;99.90;;;;;;5012732;28;20196;-92
2020/12/03 06:36:22;;;;;;;18.47;13.03;;;6.90;99.90;;;;;;5071553;28;20716;-89
2020/12/03 06:39:16;;;;;;;22.17;15.33;;;6.90;99.90;;;;;;5094406;28;20235;-91
2020/12/03 06:41:48;;;;;;;18.43;12.73;;;7.00;99.90;;;;;;5095032;28;20552;-92
2020/12/03 06:44:21;;;;;;;20.73;13.77;;;7.00;99.90;;;;;;5094871;28;20206;-93
2020/12/03 06:47:13;;;;;;;20.20;14.17;;;7.00;99.90;;;;;;5094383;28;20739;-91
2020/12/03 06:49:56;;;;;;;21.37;14.60;;;7.00;99.90;;;;;;5094195;28;20297;-90
2020/12/03 06:52:35;;;;;;;18.70;13.50;;;6.90;99.90;;;;;;5094330;28;20254;-92
2020/12/03 06:55:18;;;;;;;20.07;13.80;;;7.00;99.90;;;;;;5094129;28;20209;-93
2020/12/03 06:58:08;;;;;;;24.00;15.13;;;6.90;99.90;;;;;;5094061;28;20304;-91
2020/12/03 07:01:25;;;;;;;19.90;14.90;;;6.80;99.90;;;;;;5093946;28;20217;-92
2020/12/03 07:04:21;;;;;;;25.97;14.60;;;6.80;99.90;;;;;;5012767;28;20212;-93
2020/12/03 07:07:14;;;;;;;22.03;14.23;;;6.70;99.90;;;;;;5008472;28;20632;-90
2020/12/03 07:10:23;;;;;;;26.47;15.70;;;6.80;99.90;;;;;;5091478;28;20233;-90
2020/12/03 07:13:28;;;;;;;21.17;15.27;;;6.80;99.90;;;;;;5098340;28;20236;-92
2020/12/03 07:16:17;;;;;;;22.07;14.63;;;6.90;99.90;;;;;;5066203;28;20197;-90
2020/12/03 07:19:26;;;;;;;22.37;14.43;;;6.90;99.90;;;;;;5097835;28;20260;-92
2020/12/03 07:22:04;;;;;;;21.87;15.33;;;6.90;99.90;;;;;;5059002;28;20625;-89
2020/12/03 07:24:33;;;;;;;20.27;14.80;;;6.90;99.90;;;;;;5098644;28;20274;-91
2020/12/03 07:27:33;;;;;;;27.57;17.20;;;6.90;99.90;;;;;;5097675;28;20670;-91
2020/12/03 07:30:02;;;;;;;24.33;16.13;;;6.90;99.90;;;;;;5097804;28;20239;-89
2020/12/03 07:32:45;;;;;;;25.77;17.27;;;6.90;99.90;;;;;;5097186;28;20189;-89
2020/12/03 07:35:28;;;;;;;29.40;16.30;;;6.90;99.90;;;;;;5097536;28;20204;-91
2020/12/03 07:38:04;;;;;;;23.73;17.10;;;7.00;99.90;;;;;;5096870;28;20248;-93
2020/12/03 07:40:31;;;;;;;26.70;17.63;;;7.10;99.90;;;;;;5097485;28;20693;-92
2020/12/03 07:43:03;;;;;;;25.27;17.23;;;7.10;99.90;;;;;;5097040;28;20636;-90
2020/12/03 07:45:42;;;;;;;26.67;18.07;;;7.00;99.90;;;;;;5096845;28;20201;-91
2020/12/03 07:48:17;;;;;;;26.60;18.40;;;7.00;99.90;;;;;;5097795;28;20228;-89
2020/12/03 07:51:04;;;;;;;26.00;18.37;;;7.00;99.90;;;;;;5097125;28;20233;-90
2020/12/03 07:53:32;;;;;;;30.87;17.97;;;7.00;99.90;;;;;;5096750;28;20209;-90
2020/12/03 07:55:58;;;;;;;25.83;17.70;;;6.90;99.90;;;;;;5097165;28;20288;-92
2020/12/03 07:58:36;;;;;;;26.40;18.17;;;6.90;99.90;;;;;;5097311;28;20218;-90
2020/12/03 08:01:04;;;;;;;27.53;18.43;;;6.90;99.90;;;;;;5097057;28;20213;-90
2020/12/03 08:03:46;;;;;;;30.17;19.10;;;7.00;99.90;;;;;;5096644;28;20204;-91
2020/12/03 08:06:30;;;;;;;26.20;17.90;;;7.00;99.90;;;;;;5097355;28;20228;-91
2020/12/03 08:09:23;;;;;;;23.67;16.90;;;7.00;99.90;;;;;;5096961;28;20229;-89
2020/12/03 08:12:07;;;;;;;23.90;17.03;;;7.10;99.90;;;;;;5096865;28;20246;-82
2020/12/03 08:14:38;;;;;;;25.93;16.77;;;7.10;99.90;;;;;;5096904;28;20209;-91
2020/12/03 08:17:27;;;;;;;21.00;15.63;;;7.10;99.90;;;;;;5079188;28;20648;-92
2020/12/03 08:20:12;;;;;;;19.10;15.13;;;7.20;99.90;;;;;;5095881;28;20216;-91
2020/12/03 08:22:42;;;;;;;19.60;14.10;;;7.20;99.90;;;;;;5096407;28;20678;-90
2020/12/03 08:25:14;;;;;;;20.03;15.03;;;7.10;99.90;;;;;;5096486;28;20206;-91
2020/12/03 08:27:41;;;;;;;24.30;14.83;;;7.20;99.90;;;;;;5095747;28;20225;-94
2020/12/03 08:30:36;;;;;;;19.10;13.97;;;7.10;99.90;;;;;;5095855;28;20225;-89
2020/12/03 08:33:17;;;;;;;24.03;13.27;;;7.20;99.90;;;;;;5096396;28;20672;-94
2020/12/03 08:35:50;;;;;;;22.10;14.13;;;7.10;99.90;;;;;;5096527;28;20208;-90
2020/12/03 08:38:20;;;;;;;22.83;13.23;;;7.10;99.90;;;;;;5095302;28;20749;-90
2020/12/03 08:40:48;;;;;;;23.67;13.13;;;7.20;99.90;;;;;;5095680;28;20212;-90
2020/12/03 08:43:17;;;;;;;19.17;13.53;;;7.10;99.90;;;;;;5097423;28;20208;-90
2020/12/03 08:45:51;;;;;;;22.87;13.43;;;7.10;99.90;;;;;;5096373;28;20233;-94
2020/12/03 08:48:24;;;;;;;24.83;13.50;;;7.30;99.90;;;;;;5080645;28;20232;-94
2020/12/03 08:51:05;;;;;;;18.20;13.33;;;7.30;99.90;;;;;;5096509;28;20235;-87
2020/12/03 08:53:34;;;;;;;19.33;13.97;;;7.30;99.90;;;;;;5099923;28;20197;-94
2020/12/03 08:56:12;;;;;;;20.67;13.30;;;7.40;99.90;;;;;;5097367;28;20199;-93
2020/12/03 08:58:42;;;;;;;17.20;12.87;;;7.50;99.90;;;;;;5099777;28;20229;-91
2020/12/03 09:01:09;;;;;;;19.10;13.40;;;7.30;99.90;;;;;;5095758;28;20212;-93
2020/12/03 09:03:37;;;;;;;22.93;14.23;;;7.20;99.90;;;;;;5093615;28;20200;-95
2020/12/03 09:06:08;;;;;;;21.10;14.33;;;7.20;99.90;;;;;;5115587;28;20208;-90
2020/12/03 09:08:34;;;;;;;21.33;14.73;;;7.10;99.90;;;;;;5115575;28;20702;-90
2020/12/03 09:11:01;;;;;;;16.37;12.90;;;7.10;99.90;;;;;;5115392;28;20228;-92
2020/12/03 09:13:28;;;;;;;21.40;14.50;;;7.10;99.90;;;;;;5113921;28;20279;-91
2020/12/03 09:15:56;;;;;;;22.67;14.60;;;7.00;99.90;;;;;;5115152;28;20200;-92
2020/12/03 09:18:22;;;;;;;21.83;13.70;;;7.10;99.90;;;;;;5115437;28;20224;-90
2020/12/03 09:20:50;;;;;;;21.00;13.17;;;7.10;99.90;;;;;;5115131;28;20281;-89
2020/12/03 09:23:17;;;;;;;21.90;14.20;;;7.10;99.90;;;;;;5115336;28;20280;-92
2020/12/03 09:25:45;;;;;;;22.57;14.37;;;7.10;99.90;;;;;;5115429;28;20216;-92
2020/12/03 09:28:11;;;;;;;21.80;14.70;;;7.20;99.90;;;;;;5114830;28;20710;-91
2020/12/03 09:30:41;;;;;;;20.23;14.10;;;7.20;99.90;;;;;;5115089;28;20228;-92
2020/12/03 09:33:14;;;;;;;22.83;13.70;;;7.20;99.90;;;;;;5086660;28;20212;-91
2020/12/03 09:35:43;;;;;;;21.53;14.67;;;7.20;99.90;;;;;;5074668;28;20220;-92
2020/12/03 09:38:11;;;;;;;20.20;13.37;;;7.10;99.90;;;;;;5074646;28;20244;-93
2020/12/03 09:40:39;;;;;;;21.70;14.83;;;7.20;99.90;;;;;;5074515;28;20202;-94
2020/12/03 09:43:06;;;;;;;22.77;14.20;;;7.20;99.90;;;;;;5074811;28;20205;-92
2020/12/03 09:45:37;;;;;;;20.40;14.63;;;7.20;99.90;;;;;;5074485;28;20205;-89
2020/12/03 09:48:11;;;;;;;25.10;14.67;;;7.20;99.90;;;;;;5074402;28;20232;-90
2020/12/03 09:50:41;;;;;;;21.50;14.73;;;7.20;99.90;;;;;;5056682;28;20696;-88
2020/12/03 09:53:11;;;;;;;23.00;15.80;;;7.20;99.90;;;;;;5074676;28;20202;-90
2020/12/03 09:55:39;;;;;;;20.67;15.57;;;7.30;99.90;;;;;;5057872;28;20206;-91
2020/12/03 09:58:05;;;;;;;27.47;16.30;;;7.40;99.90;;;;;;5076004;28;20301;-92
2020/12/03 10:00:38;;;;;;;25.63;16.30;;;7.40;99.90;;;;;;5074907;28;20209;-89
2020/12/03 10:03:30;;;;;;;22.77;15.57;;;7.30;99.90;;;;;;5074256;28;20213;-90
2020/12/03 10:06:08;;;;;;;25.03;15.93;;;7.30;99.90;;;;;;5073980;28;20225;-90
2020/12/03 10:09:08;;;;;;;22.63;16.83;;;7.40;99.90;;;;;;5056346;28;20535;-90
2020/12/03 10:12:11;;;;;;;26.03;15.50;;;7.30;99.90;;;;;;5027124;28;20228;-92
2020/12/03 10:14:53;;;;;;;27.00;17.20;;;7.30;99.90;;;;;;5074241;28;20209;-92
2020/12/03 10:17:22;;;;;;;24.70;16.37;;;7.30;99.90;;;;;;5074501;28;20690;-92
2020/12/03 10:19:50;;;;;;;23.27;15.70;;;7.20;99.90;;;;;;5074638;28;20275;-91
2020/12/03 10:22:30;;;;;;;23.50;16.07;;;7.20;99.90;;;;;;5075020;28;20240;-91
2020/12/03 10:25:14;;;;;;;23.13;15.50;;;7.20;99.90;;;;;;5082651;28;20253;-90
2020/12/03 10:27:59;;;;;;;27.53;17.13;;;7.20;99.90;;;;;;5085377;28;20727;-90
2020/12/03 10:30:36;;;;;;;22.23;16.33;;;7.30;99.90;;;;;;5088713;28;20221;-92
2020/12/03 10:33:12;;;;;;;22.67;15.50;;;7.20;99.90;;;;;;5089327;28;20213;-93
2020/12/03 10:35:44;;;;;;;19.90;13.60;;;7.00;99.90;;;;;;5075370;28;20284;-94
2020/12/03 10:38:19;;;;;;;24.77;15.40;;;7.00;99.90;;;;;;5074163;28;20245;-92
2020/12/03 10:40:52;;;;;;;23.70;16.47;;;7.00;99.90;;;;;;5090182;28;20220;-92
2020/12/03 10:43:28;;;;;;;23.83;15.00;;;7.00;99.90;;;;;;5092491;28;20200;-92
2020/12/03 10:48:52;;;;;;;24.07;14.80;;;7.20;99.90;;;;;;5099682;28;20229;-93
2020/12/03 10:51:22;;;;;;;25.30;14.93;;;7.20;99.90;;;;;;5097349;28;20225;-92
2020/12/03 10:53:50;;;;;;;25.17;14.03;;;7.20;99.90;;;;;;5071519;28;20225;-91
2020/12/03 10:56:26;;;;;;;28.10;14.87;;;7.20;99.90;;;;;;5085091;28;20204;-93
2020/12/03 10:59:38;;;;;;;19.90;13.47;;;7.20;99.90;;;;;;5086954;28;20252;-91
2020/12/03 11:02:15;;;;;;;21.07;13.80;;;7.30;99.90;;;;;;5087044;28;20201;-92
2020/12/03 11:04:42;;;;;;;20.40;12.87;;;7.20;99.90;;;;;;5084827;28;20597;-91
2020/12/03 11:07:12;;;;;;;19.57;12.17;;;7.40;99.90;;;;;;5082064;28;20225;-92
2020/12/03 11:09:39;;;;;;;15.60;12.07;;;7.30;99.90;;;;;;5088413;28;20230;-94
2020/12/03 11:12:10;;;;;;;19.70;11.43;;;7.20;99.90;;;;;;5083425;28;20247;-91
2020/12/03 11:14:37;;;;;;;18.43;10.93;;;7.30;99.90;;;;;;5085432;28;20216;-92
2020/12/03 11:17:09;;;;;;;14.73;11.23;;;7.40;99.90;;;;;;5084852;28;20263;-92
2020/12/03 11:19:37;;;;;;;16.90;10.27;;;7.30;99.90;;;;;;5085301;28;20292;-93
2020/12/03 11:22:21;;;;;;;13.13;10.13;;;7.30;99.90;;;;;;5084993;28;20210;-93
2020/12/03 11:24:51;;;;;;;17.77;10.43;;;7.30;99.90;;;;;;5092682;28;20223;-93
2020/12/03 11:27:22;;;;;;;13.83;10.53;;;7.40;99.90;;;;;;5091168;28;20220;-93
2020/12/03 11:29:48;;;;;;;16.30;10.00;;;7.50;99.90;;;;;;5092334;28;20229;-92
2020/12/03 11:32:27;;;;;;;16.00;10.07;;;7.40;99.90;;;;;;5091201;28;20243;-92
2020/12/03 11:34:54;;;;;;;14.70;9.83;;;7.30;99.90;;;;;;5093747;28;20225;-93
2020/12/03 11:37:22;;;;;;;17.57;10.10;;;7.30;99.90;;;;;;5085824;28;20241;-88
2020/12/03 11:39:50;;;;;;;14.17;9.77;;;7.40;99.90;;;;;;5080768;28;20292;-90
2020/12/03 11:42:35;;;;;;;14.57;8.83;;;7.50;99.90;;;;;;5080363;28;20206;-88
2020/12/03 11:48:22;;;;;;;13.77;8.93;;;7.70;99.90;;;;;;5076412;28;20218;-88
2020/12/03 11:50:48;;;;;;;13.00;8.90;;;7.70;99.90;;;;;;5078248;28;20707;-89
2020/12/03 11:53:19;;;;;;;12.30;8.47;;;7.80;99.90;;;;;;5077960;28;20202;-91
2020/12/03 11:55:46;;;;;;;15.30;8.40;;;7.80;99.90;;;;;;5082122;28;20201;-90
2020/12/03 11:58:12;;;;;;;13.90;7.93;;;7.80;99.90;;;;;;5098213;28;20237;-91
2020/12/03 12:00:40;;;;;;;19.77;8.47;;;7.90;99.90;;;;;;5098599;28;20285;-91
2020/12/03 12:03:09;;;;;;;10.93;8.23;;;7.90;99.90;;;;;;5101976;28;20203;-89
2020/12/03 12:05:46;;;;;;;10.80;7.33;;;7.90;99.90;;;;;;5104263;28;20287;-92
2020/12/03 12:08:20;;;;;;;10.43;7.70;;;7.80;99.90;;;;;;5101952;28;20279;-92
2020/12/03 12:10:53;;;;;;;14.50;7.37;;;7.70;99.90;;;;;;5103654;28;20229;-89
2020/12/03 12:13:20;;;;;;;8.73;6.87;;;7.70;99.90;;;;;;5107323;28;20241;-88
2020/12/03 12:15:49;;;;;;;12.23;7.00;;;7.70;99.90;;;;;;5104395;28;20194;-91
2020/12/03 12:18:15;;;;;;;14.30;6.40;;;7.70;99.90;;;;;;5086302;28;20227;-88
2020/12/03 12:20:42;;;;;;;11.03;6.40;;;7.80;99.90;;;;;;5102824;28;20247;-90
2020/12/03 12:23:12;;;;;;;17.23;7.23;;;7.80;99.90;;;;;;5105219;28;20209;-91
2020/12/03 12:25:38;;;;;;;12.00;6.07;;;7.90;99.90;;;;;;5102841;28;20201;-88
2020/12/03 12:28:04;;;;;;;10.23;5.70;;;7.90;99.90;;;;;;5097478;28;20305;-88
2020/12/03 12:30:32;;;;;;;7.47;5.47;;;7.80;99.90;;;;;;5096913;28;20304;-87
2020/12/03 12:32:59;;;;;;;6.07;4.90;;;7.60;99.90;;;;;;5097933;28;20296;-89
2020/12/03 12:35:25;;;;;;;5.40;4.57;;;7.60;99.90;;;;;;5098763;28;20200;-89
2020/12/03 12:37:52;;;;;;;8.07;5.33;;;7.60;99.90;;;;;;5101540;28;20259;-89
2020/12/03 12:40:19;;;;;;;13.13;5.77;;;7.50;99.90;;;;;;5097809;28;20258;-89
2020/12/03 12:42:45;;;;;;;8.37;6.93;;;7.50;99.90;;;;;;5097348;28;20513;-89
2020/12/03 12:45:12;;;;;;;7.50;5.70;;;7.60;99.90;;;;;;5096013;28;20220;-90
2020/12/03 12:47:38;;;;;;;12.67;6.23;;;7.60;99.90;;;;;;5096065;28;20255;-90
2020/12/03 12:50:05;;;;;;;6.70;5.97;;;7.50;99.90;;;;;;5096504;28;20609;-91
2020/12/03 12:52:32;;;;;;;8.40;6.13;;;7.60;99.90;;;;;;5096722;28;20205;-92
2020/12/03 12:54:58;;;;;;;10.17;5.03;;;7.50;99.90;;;;;;5097419;28;20209;-90
2020/12/03 12:57:26;;;;;;;7.83;5.00;;;7.50;99.90;;;;;;5099093;28;20276;-90
2020/12/03 12:59:52;;;;;;;6.23;4.77;;;7.30;99.90;;;;;;5100135;28;20636;-89
2020/12/03 13:02:19;;;;;;;8.03;5.23;;;7.20;99.90;;;;;;5101164;28;20272;-89
2020/12/03 13:04:45;;;;;;;6.57;4.90;;;7.10;99.90;;;;;;5099507;28;20227;-86
2020/12/03 13:07:13;;;;;;;4.93;4.40;;;7.20;99.90;;;;;;5095180;28;20714;-89
2020/12/03 13:09:39;;;;;;;4.90;4.10;;;7.30;99.90;;;;;;5120908;28;20254;-89
2020/12/03 13:12:05;;;;;;;5.83;4.50;;;7.30;99.90;;;;;;5120247;28;20246;-90
2020/12/03 13:14:32;;;;;;;7.60;4.50;;;7.30;99.90;;;;;;5116905;28;20313;-90
2020/12/03 13:16:59;;;;;;;5.40;4.30;;;7.30;99.90;;;;;;5119670;28;20200;-91
2020/12/03 13:19:26;;;;;;;6.67;4.10;;;7.30;99.90;;;;;;5120199;28;20251;-90
2020/12/03 13:21:52;;;;;;;4.87;4.30;;;7.30;99.90;;;;;;5120506;28;20209;-91
2020/12/03 13:24:20;;;;;;;6.30;4.70;;;7.20;99.90;;;;;;5120341;28;20296;-91
2020/12/03 13:26:46;;;;;;;8.93;4.80;;;7.20;99.90;;;;;;5121136;28;20310;-88
2020/12/03 13:29:15;;;;;;;5.00;4.50;;;7.10;99.90;;;;;;5119697;28;20285;-88
2020/12/03 13:31:45;;;;;;;8.93;4.37;;;7.10;99.90;;;;;;5120296;28;20228;-92
2020/12/03 13:34:11;;;;;;;5.37;4.60;;;7.10;99.90;;;;;;5121355;28;20659;-89
2020/12/03 13:36:38;;;;;;;8.47;5.13;;;7.20;99.90;;;;;;5102709;28;20202;-89
2020/12/03 13:39:05;;;;;;;9.13;5.00;;;7.20;99.90;;;;;;5092945;28;20245;-89
2020/12/03 13:41:32;;;;;;;5.90;5.30;;;7.20;99.90;;;;;;5097711;28;20212;-87
2020/12/03 13:43:58;;;;;;;8.40;4.93;;;7.20;99.90;;;;;;5081430;28;20205;-89
2020/12/03 13:46:25;;;;;;;6.73;4.70;;;7.20;99.90;;;;;;5113028;28;20196;-90
2020/12/03 13:48:51;;;;;;;9.43;5.03;;;7.20;99.90;;;;;;5117068;28;20220;-91
2020/12/03 13:51:18;;;;;;;9.37;5.67;;;7.20;99.90;;;;;;5118925;28;20220;-88
2020/12/03 13:53:44;;;;;;;12.23;5.87;;;7.20;99.90;;;;;;5119181;28;20283;-87
2020/12/03 13:56:12;;;;;;;10.87;6.30;;;7.20;99.90;;;;;;5118282;28;20204;-89
2020/12/03 13:58:39;;;;;;;7.67;5.53;;;7.20;99.90;;;;;;5116550;28;20307;-90
2020/12/03 14:01:06;;;;;;;9.23;6.30;;;7.30;99.90;;;;;;5115234;28;20208;-90
2020/12/03 14:03:32;;;;;;;9.00;6.50;;;7.30;99.90;;;;;;5114791;28;20691;-89
2020/12/03 14:05:59;;;;;;;11.83;6.87;;;7.20;99.90;;;;;;5111544;28;20301;-90
2020/12/03 14:08:25;;;;;;;9.37;6.53;;;7.30;99.90;;;;;;5094939;28;20225;-91